createdAt,value
2019-02-14T00:01:14.843Z,11.23
2019-02-14T00:03:44.168Z,10.20
2019-02-14T00:06:13.587Z,10.10
2019-02-14T00:08:42.861Z,9.97
2019-02-14T00:11:12.164Z,9.83
2019-02-14T00:13:41.608Z,10.40
2019-02-14T00:16:10.889Z,10.60
2019-02-14T00:18:40.241Z,10.10
2019-02-14T00:21:09.775Z,10.33
2019-02-14T00:23:39.075Z,10.13
2019-02-14T00:26:08.400Z,10.00
2019-02-14T00:28:37.847Z,10.17
2019-02-14T00:31:07.131Z,9.00
2019-02-14T00:33:36.425Z,9.93
2019-02-14T00:36:05.845Z,9.17
2019-02-14T00:38:35.187Z,8.90
2019-02-14T00:41:04.583Z,8.40
2019-02-14T00:43:33.944Z,8.37
2019-02-14T00:46:03.232Z,8.53
2019-02-14T00:48:32.664Z,8.27
2019-02-14T00:51:02.266Z,7.83
2019-02-14T00:53:31.569Z,8.30
2019-02-14T00:56:00.953Z,8.37
2019-02-14T00:58:30.529Z,7.93
2019-02-14T01:00:59.788Z,8.20
2019-02-14T01:03:29.012Z,7.90
2019-02-14T01:05:58.495Z,8.10
2019-02-14T01:08:27.873Z,8.37
2019-02-14T01:10:57.255Z,8.03
2019-02-14T01:13:26.731Z,8.43
2019-02-14T01:15:56.049Z,7.80
2019-02-14T01:18:25.296Z,7.83
2019-02-14T01:20:54.667Z,8.50
2019-02-14T01:23:23.946Z,8.30
2019-02-14T01:25:53.181Z,8.77
2019-02-14T01:28:22.525Z,9.13
2019-02-14T01:30:51.868Z,9.23
2019-02-14T01:33:21.175Z,9.10
2019-02-14T01:35:50.568Z,10.43
2019-02-14T01:38:19.853Z,9.67
2019-02-14T01:40:49.096Z,9.97
2019-02-14T01:43:18.359Z,10.50
2019-02-14T01:45:47.660Z,10.53
2019-02-14T01:48:17.045Z,9.47
2019-02-14T01:50:46.388Z,10.63
2019-02-14T01:53:15.642Z,11.23
2019-02-14T01:55:44.964Z,11.67
2019-02-14T01:58:14.578Z,11.23
2019-02-14T02:00:43.937Z,10.93
2019-02-14T02:03:13.346Z,12.53
2019-02-14T02:05:50.425Z,12.80
2019-02-14T02:08:13.841Z,11.70
2019-02-14T02:10:43.173Z,11.80
2019-02-14T02:13:12.525Z,11.93
2019-02-14T02:15:41.793Z,12.27
2019-02-14T02:18:11.099Z,12.03
2019-02-14T02:20:40.469Z,12.60
2019-02-14T02:23:09.831Z,12.33
2019-02-14T02:25:39.138Z,12.13
2019-02-14T02:28:08.459Z,11.87
2019-02-14T02:30:37.754Z,12.73
2019-02-14T02:33:07.035Z,11.50
2019-02-14T02:35:36.536Z,11.40
2019-02-14T02:38:05.873Z,10.70
2019-02-14T02:40:35.621Z,10.60
2019-02-14T02:43:05.266Z,10.40
2019-02-14T02:45:34.847Z,10.10
2019-02-14T02:48:04.123Z,9.57
2019-02-14T02:50:33.662Z,9.87
2019-02-14T02:53:02.944Z,9.13
2019-02-14T02:55:32.208Z,8.97
2019-02-14T02:58:01.588Z,9.03
2019-02-14T03:00:30.961Z,9.03
2019-02-14T03:03:00.297Z,8.63
2019-02-14T03:05:29.728Z,9.30
2019-02-14T03:07:59.003Z,8.43
2019-02-14T03:10:28.286Z,9.07
2019-02-14T03:12:57.707Z,9.47
2019-02-14T03:15:27.043Z,9.00
2019-02-14T03:17:56.355Z,8.17
2019-02-14T03:20:25.617Z,8.83
2019-02-14T03:22:54.849Z,8.80
2019-02-14T03:25:24.215Z,8.87
2019-02-14T03:27:53.835Z,10.00
2019-02-14T03:30:23.173Z,9.80
2019-02-14T03:32:52.523Z,9.33
2019-02-14T03:35:22.005Z,8.87
2019-02-14T03:37:51.324Z,8.70
2019-02-14T03:40:20.634Z,8.97
2019-02-14T03:42:50.261Z,9.23
2019-02-14T03:45:19.536Z,9.03
2019-02-14T03:47:48.840Z,9.33
2019-02-14T03:50:18.455Z,8.90
2019-02-14T03:52:47.829Z,9.27
2019-02-14T03:55:17.221Z,8.50
2019-02-14T03:57:46.550Z,7.63
2019-02-14T04:00:16.311Z,7.97
2019-02-14T04:02:45.585Z,7.60
2019-02-14T04:05:15.059Z,10.37
2019-02-14T04:07:44.408Z,8.43
2019-02-14T04:10:13.815Z,8.77
2019-02-14T04:12:43.625Z,9.43
2019-02-14T04:15:15.140Z,9.20
2019-02-14T04:17:44.479Z,8.47
2019-02-14T04:20:13.816Z,10.77
2019-02-14T04:22:43.103Z,9.73
2019-02-14T04:25:12.380Z,10.73
2019-02-14T04:27:41.694Z,11.07
2019-02-14T04:30:11.590Z,10.07
2019-02-14T04:32:40.955Z,11.13
2019-02-14T04:35:10.235Z,10.63
2019-02-14T04:37:39.553Z,10.50
2019-02-14T04:40:10.597Z,10.67
2019-02-14T04:42:40.018Z,10.80
2019-02-14T04:45:09.504Z,10.73
2019-02-14T04:47:38.794Z,10.93
2019-02-14T04:50:08.454Z,10.93
2019-02-14T04:52:37.769Z,10.47
2019-02-14T04:55:07.575Z,10.80
2019-02-14T04:57:36.919Z,10.60
2019-02-14T05:00:07.107Z,10.60
2019-02-14T05:02:36.690Z,10.00
2019-02-14T05:05:06.309Z,11.23
2019-02-14T05:07:35.773Z,10.43
2019-02-14T05:10:05.868Z,10.47
2019-02-14T05:12:35.133Z,10.73
2019-02-14T05:15:04.630Z,11.37
2019-02-14T05:17:34.190Z,11.90
2019-02-14T05:20:03.530Z,11.67
2019-02-14T05:22:32.871Z,11.60
2019-02-14T05:25:02.351Z,11.10
2019-02-14T05:27:33.019Z,12.33
2019-02-14T05:30:02.346Z,13.27
2019-02-14T05:32:31.902Z,13.93
2019-02-14T05:35:01.233Z,13.47
2019-02-14T05:37:30.548Z,14.53
2019-02-14T05:39:59.992Z,13.97
2019-02-14T05:42:29.306Z,14.17
2019-02-14T05:44:58.705Z,15.83
2019-02-14T05:47:28.130Z,15.43
2019-02-14T05:49:57.390Z,15.70
2019-02-14T05:52:26.775Z,16.00
2019-02-14T05:54:56.222Z,16.30
2019-02-14T05:57:27.364Z,15.67
2019-02-14T05:59:56.708Z,15.97
2019-02-14T06:02:26.236Z,17.67
2019-02-14T06:04:55.549Z,18.30
2019-02-14T06:07:24.895Z,17.93
2019-02-14T06:09:54.340Z,17.07
2019-02-14T06:12:23.648Z,17.37
2019-02-14T06:14:52.979Z,17.10
2019-02-14T06:17:22.372Z,17.33
2019-02-14T06:19:51.631Z,16.97
2019-02-14T06:22:20.894Z,17.03
2019-02-14T06:24:50.355Z,17.07
2019-02-14T06:27:19.690Z,17.53
2019-02-14T06:29:49.097Z,16.27
2019-02-14T06:32:18.651Z,15.60
2019-02-14T06:34:48.005Z,16.43
2019-02-14T06:37:17.296Z,15.70
2019-02-14T06:39:46.644Z,15.83
2019-02-14T06:42:15.942Z,14.90
2019-02-14T06:44:45.243Z,14.73
2019-02-14T06:47:14.767Z,14.87
2019-02-14T06:49:44.145Z,14.73
2019-02-14T06:52:13.489Z,14.20
2019-02-14T06:54:43.058Z,13.83
2019-02-14T06:57:12.368Z,13.30
2019-02-14T06:59:41.660Z,14.10
2019-02-14T07:02:11.192Z,12.97
2019-02-14T07:04:40.503Z,13.87
2019-02-14T07:07:17.882Z,13.67
2019-02-14T07:09:40.956Z,12.00
2019-02-14T07:12:10.313Z,11.67
2019-02-14T07:14:39.573Z,9.87
2019-02-14T07:17:08.961Z,9.60
2019-02-14T07:19:38.336Z,9.60
2019-02-14T07:22:07.730Z,9.17
2019-02-14T07:24:37.182Z,9.33
2019-02-14T07:27:06.398Z,8.40
2019-02-14T07:29:35.684Z,8.70
2019-02-14T07:32:05.092Z,9.23
2019-02-14T07:34:34.411Z,8.27
2019-02-14T07:37:03.769Z,7.30
2019-02-14T07:39:33.356Z,7.43
2019-02-14T07:42:02.707Z,6.17
2019-02-14T07:44:32.170Z,6.50
2019-02-14T07:47:01.514Z,6.57
2019-02-14T07:49:30.821Z,6.57
2019-02-14T07:52:00.127Z,7.23
2019-02-14T07:54:29.411Z,7.80
2019-02-14T07:56:58.801Z,8.17
2019-02-14T07:59:28.166Z,8.17
2019-02-14T08:01:57.735Z,7.87
2019-02-14T08:04:27.020Z,9.20
2019-02-14T08:06:56.294Z,9.30
2019-02-14T08:09:25.757Z,9.33
2019-02-14T08:11:55.081Z,10.00
2019-02-14T08:14:24.454Z,10.93
2019-02-14T08:16:53.991Z,10.70
2019-02-14T08:19:23.311Z,11.80
2019-02-14T08:21:52.671Z,12.13
2019-02-14T08:24:22.025Z,12.87
2019-02-14T08:26:51.301Z,12.50
2019-02-14T08:29:20.596Z,12.23
2019-02-14T08:31:50.098Z,12.67
2019-02-14T08:34:19.427Z,12.40
2019-02-14T08:36:48.704Z,13.50
2019-02-14T08:39:18.222Z,12.27
2019-02-14T08:41:47.533Z,11.93
2019-02-14T08:44:16.803Z,12.33
2019-02-14T08:46:46.244Z,12.40
2019-02-14T08:49:15.589Z,12.50
2019-02-14T08:51:44.951Z,12.90
2019-02-14T08:54:14.402Z,13.17
2019-02-14T08:56:43.667Z,13.03
2019-02-14T08:59:12.966Z,13.70
2019-02-14T09:01:42.477Z,13.70
2019-02-14T09:04:11.781Z,13.23
2019-02-14T09:06:41.099Z,14.23
2019-02-14T09:09:10.641Z,13.80
2019-02-14T09:11:40.169Z,14.00
2019-02-14T09:14:09.487Z,13.70
2019-02-14T09:16:38.952Z,13.30
2019-02-14T09:19:08.309Z,13.37
2019-02-14T09:21:37.585Z,13.23
2019-02-14T09:24:06.937Z,13.33
2019-02-14T09:26:36.289Z,13.40
2019-02-14T09:29:05.619Z,13.63
2019-02-14T09:31:35.001Z,12.77
2019-02-14T09:34:05.362Z,13.40
2019-02-14T09:36:34.679Z,12.23
2019-02-14T09:39:04.734Z,12.60
2019-02-14T09:41:34.054Z,12.50
2019-02-14T09:44:03.383Z,12.67
2019-02-14T09:46:33.022Z,12.90
2019-02-14T09:49:02.357Z,13.30
2019-02-14T09:51:31.682Z,13.73
2019-02-14T09:54:01.185Z,14.07
2019-02-14T09:56:30.511Z,12.90
2019-02-14T09:58:59.814Z,13.47
2019-02-14T10:01:29.198Z,13.77
2019-02-14T10:03:58.582Z,13.17
2019-02-14T10:06:36.190Z,13.53
2019-02-14T10:09:00.614Z,12.70
2019-02-14T10:11:30.189Z,14.13
2019-02-14T10:13:59.545Z,14.13
2019-02-14T10:16:28.879Z,14.80
2019-02-14T10:18:58.192Z,13.17
2019-02-14T10:21:27.582Z,13.00
2019-02-14T10:23:57.028Z,13.33
2019-02-14T10:26:26.308Z,12.37
2019-02-14T10:28:55.649Z,12.23
2019-02-14T10:31:25.002Z,12.60
2019-02-14T10:33:54.346Z,12.47
2019-02-14T10:36:23.695Z,13.63
2019-02-14T10:38:52.972Z,13.73
2019-02-14T10:41:22.264Z,13.23
2019-02-14T10:43:51.613Z,13.43
2019-02-14T10:46:21.032Z,13.53
2019-02-14T10:48:50.338Z,13.60
2019-02-14T10:51:19.639Z,14.07
2019-02-14T10:53:48.997Z,13.77
2019-02-14T10:56:18.344Z,13.00
2019-02-14T10:58:47.685Z,13.53
2019-02-14T11:01:17.159Z,14.23
2019-02-14T11:03:46.498Z,14.20
2019-02-14T11:06:15.817Z,14.37
2019-02-14T11:08:45.362Z,14.90
2019-02-14T11:11:14.746Z,15.60
2019-02-14T11:13:44.022Z,15.23
2019-02-14T11:16:13.409Z,14.37
2019-02-14T11:18:44.583Z,15.23
2019-02-14T11:21:13.832Z,15.93
2019-02-14T11:23:43.309Z,15.13
2019-02-14T11:26:12.593Z,15.60
2019-02-14T11:28:42.012Z,15.10
2019-02-14T11:31:11.275Z,15.13
2019-02-14T11:33:40.751Z,14.97
2019-02-14T11:36:10.117Z,14.03
2019-02-14T11:38:40.857Z,14.27
2019-02-14T11:41:10.253Z,13.27
2019-02-14T11:43:39.577Z,14.17
2019-02-14T11:46:08.887Z,13.97
2019-02-14T11:48:38.459Z,14.20
2019-02-14T11:51:07.793Z,13.53
2019-02-14T11:53:37.086Z,14.03
2019-02-14T11:56:06.617Z,14.13
2019-02-14T11:58:35.917Z,13.33
2019-02-14T12:01:05.465Z,13.27
2019-02-14T12:03:34.941Z,13.30
2019-02-14T12:06:04.210Z,13.13
2019-02-14T12:08:33.564Z,13.43
2019-02-14T12:11:03.053Z,13.03
2019-02-14T12:13:32.418Z,13.07
2019-02-14T12:16:01.746Z,12.87
2019-02-14T12:18:31.239Z,12.13
2019-02-14T12:21:00.539Z,12.33
2019-02-14T12:23:29.894Z,12.30
2019-02-14T12:25:59.405Z,11.03
2019-02-14T12:28:28.699Z,10.77
2019-02-14T12:30:58.012Z,11.20
2019-02-14T12:33:27.470Z,11.23
2019-02-14T12:35:56.809Z,11.00
2019-02-14T12:38:26.093Z,11.33
2019-02-14T12:40:55.395Z,10.97
2019-02-14T12:43:24.730Z,10.13
2019-02-14T12:45:54.021Z,11.83
2019-02-14T12:48:23.363Z,12.77
2019-02-14T12:50:52.654Z,11.03
2019-02-14T12:53:21.912Z,12.03
2019-02-14T12:55:51.410Z,11.93
2019-02-14T12:58:20.724Z,11.23
2019-02-14T13:00:50.009Z,12.10
2019-02-14T13:03:19.514Z,12.00
2019-02-14T13:05:48.840Z,12.20
2019-02-14T13:08:18.137Z,12.43
2019-02-14T13:10:47.512Z,12.43
2019-02-14T13:13:16.813Z,12.33
2019-02-14T13:15:46.088Z,12.73
2019-02-14T13:18:15.568Z,12.63
2019-02-14T13:20:44.898Z,11.13
2019-02-14T13:23:14.205Z,11.43
2019-02-14T13:25:43.525Z,11.57
2019-02-14T13:28:12.864Z,11.17
2019-02-14T13:30:42.203Z,11.00
2019-02-14T13:33:11.560Z,11.67
2019-02-14T13:35:41.971Z,10.83
2019-02-14T13:38:11.314Z,10.60
2019-02-14T13:40:40.612Z,11.07
2019-02-14T13:43:10.522Z,11.40
2019-02-14T13:45:39.917Z,11.47
2019-02-14T13:48:09.946Z,10.90
2019-02-14T13:50:39.254Z,11.60
2019-02-14T13:53:08.625Z,10.97
2019-02-14T13:55:38.019Z,10.40
2019-02-14T13:58:07.293Z,9.40
2019-02-14T14:00:36.609Z,9.40
2019-02-14T14:03:05.935Z,9.33
2019-02-14T14:05:35.397Z,10.40
2019-02-14T14:08:04.726Z,10.23
2019-02-14T14:10:34.194Z,10.90
2019-02-14T14:13:03.511Z,10.20
2019-02-14T14:15:32.795Z,10.57
2019-02-14T14:18:02.244Z,10.97
2019-02-14T14:20:31.602Z,10.33
2019-02-14T14:23:00.921Z,10.33
2019-02-14T14:25:30.336Z,12.10
2019-02-14T14:27:59.614Z,12.50
2019-02-14T14:30:28.933Z,11.83
2019-02-14T14:32:58.485Z,12.13
2019-02-14T14:35:27.796Z,13.77
2019-02-14T14:37:57.079Z,14.97
2019-02-14T14:40:26.727Z,15.67
2019-02-14T14:43:14.984Z,16.13
2019-02-14T14:46:01.193Z,17.00
2019-02-14T14:48:35.748Z,18.07
2019-02-14T14:51:05.310Z,18.00
2019-02-14T14:53:34.596Z,18.97
2019-02-14T14:56:03.889Z,17.70
2019-02-14T14:58:33.469Z,19.20
2019-02-14T15:01:02.803Z,19.93
2019-02-14T15:03:32.066Z,20.20
2019-02-14T15:06:01.501Z,20.67
2019-02-14T15:08:30.820Z,20.93
2019-02-14T15:11:00.110Z,20.50
2019-02-14T15:13:29.758Z,21.27
2019-02-14T15:15:59.027Z,19.53
2019-02-14T15:18:28.365Z,19.87
2019-02-14T15:20:57.678Z,19.87
2019-02-14T15:23:26.935Z,18.60
2019-02-14T15:25:56.295Z,17.53
2019-02-14T15:28:25.602Z,17.70
2019-02-14T15:30:55.004Z,18.50
2019-02-14T15:33:24.396Z,18.23
2019-02-14T15:35:53.872Z,18.73
2019-02-14T15:38:23.188Z,17.87
2019-02-14T15:40:52.539Z,17.70
2019-02-14T15:43:22.071Z,17.20
2019-02-14T15:45:51.425Z,18.63
2019-02-14T15:48:20.769Z,17.37
2019-02-14T15:50:51.509Z,17.73
2019-02-14T15:53:21.606Z,18.63
2019-02-14T15:55:51.099Z,19.70
2019-02-14T15:58:20.437Z,18.40
2019-02-14T16:00:51.677Z,18.00
2019-02-14T16:03:20.884Z,19.93
2019-02-14T16:05:50.245Z,18.53
2019-02-14T16:08:21.774Z,19.80
2019-02-14T16:10:54.056Z,21.43
2019-02-14T16:13:21.601Z,21.83
2019-02-14T16:15:51.094Z,20.97
2019-02-14T16:18:21.225Z,22.97
2019-02-14T16:20:51.594Z,22.87
2019-02-14T16:23:20.976Z,22.23
2019-02-14T16:25:51.989Z,22.53
2019-02-14T16:28:21.308Z,22.63
2019-02-14T16:30:52.433Z,22.73
2019-02-14T16:33:23.555Z,21.57
2019-02-14T16:35:53.189Z,22.63
2019-02-14T16:38:22.570Z,23.33
2019-02-14T16:40:51.889Z,22.70
2019-02-14T16:43:21.224Z,21.03
2019-02-14T16:45:50.538Z,17.80
2019-02-14T16:48:19.860Z,19.30
2019-02-14T16:50:49.180Z,19.17
2019-02-14T16:53:18.459Z,18.77
2019-02-14T16:55:47.783Z,18.83
2019-02-14T16:58:17.159Z,18.43
2019-02-14T17:00:46.498Z,16.97
2019-02-14T17:03:15.770Z,17.03
2019-02-14T17:05:45.229Z,17.13
2019-02-14T17:08:14.566Z,18.10
2019-02-14T17:10:43.892Z,17.90
2019-02-14T17:13:13.183Z,17.33
2019-02-14T17:15:42.497Z,17.20
2019-02-14T17:18:11.803Z,17.03
2019-02-14T17:20:41.353Z,16.27
2019-02-14T17:23:10.658Z,16.57
2019-02-14T17:25:39.915Z,16.77
2019-02-14T17:28:09.265Z,17.07
2019-02-14T17:30:38.575Z,16.57
2019-02-14T17:33:07.855Z,16.37
2019-02-14T17:35:37.264Z,17.40
2019-02-14T17:38:06.627Z,17.00
2019-02-14T17:40:35.891Z,17.30
2019-02-14T17:43:05.239Z,15.67
2019-02-14T17:45:34.529Z,15.87
2019-02-14T17:48:03.835Z,16.57
2019-02-14T17:50:33.149Z,15.10
2019-02-14T17:53:02.486Z,17.07
2019-02-14T17:55:31.833Z,16.33
2019-02-14T17:58:01.143Z,16.03
2019-02-14T18:00:31.237Z,15.37
2019-02-14T18:03:00.512Z,16.93
2019-02-14T18:05:29.843Z,16.47
2019-02-14T18:07:59.211Z,16.07
2019-02-14T18:10:28.545Z,17.73
2019-02-14T18:12:59.329Z,17.00
2019-02-14T18:15:28.645Z,17.47
2019-02-14T18:17:57.951Z,17.20
2019-02-14T18:20:27.278Z,16.40
2019-02-14T18:22:56.611Z,16.57
2019-02-14T18:25:25.899Z,18.10
2019-02-14T18:27:55.433Z,17.03
2019-02-14T18:30:24.738Z,16.40
2019-02-14T18:32:54.010Z,17.03
2019-02-14T18:35:23.489Z,16.83
2019-02-14T18:37:52.779Z,16.80
2019-02-14T18:40:22.098Z,16.10
2019-02-14T18:42:52.217Z,17.03
2019-02-14T18:45:21.496Z,16.67
2019-02-14T18:47:50.809Z,17.27
2019-02-14T18:50:20.179Z,15.77
2019-02-14T18:52:49.518Z,17.47
2019-02-14T18:55:18.830Z,16.87
2019-02-14T18:57:48.176Z,17.60
2019-02-14T19:00:17.545Z,17.30
2019-02-14T19:02:46.850Z,17.23
2019-02-14T19:05:16.209Z,18.07
2019-02-14T19:07:45.506Z,18.20
2019-02-14T19:10:14.967Z,18.73
2019-02-14T19:12:44.489Z,18.83
2019-02-14T19:15:14.073Z,19.53
2019-02-14T19:17:43.538Z,19.77
2019-02-14T19:20:13.199Z,19.90
2019-02-14T19:22:42.504Z,18.17
2019-02-14T19:25:11.956Z,19.17
2019-02-14T19:27:41.485Z,19.43
2019-02-14T19:30:11.062Z,20.67
2019-02-14T19:32:40.405Z,20.27
2019-02-14T19:35:10.143Z,19.87
2019-02-14T19:37:39.435Z,20.60
2019-02-14T19:40:08.886Z,22.47
2019-02-14T19:42:38.270Z,21.60
2019-02-14T19:45:08.321Z,21.60
2019-02-14T19:47:37.634Z,20.83
2019-02-14T19:50:08.155Z,21.07
2019-02-14T19:52:37.925Z,22.70
2019-02-14T19:55:07.589Z,19.73
2019-02-14T19:57:36.876Z,20.53
2019-02-14T20:00:07.303Z,20.27
2019-02-14T20:02:36.608Z,20.87
2019-02-14T20:05:06.758Z,20.60
2019-02-14T20:07:36.065Z,21.00
2019-02-14T20:10:05.927Z,20.67
2019-02-14T20:12:35.366Z,21.03
2019-02-14T20:15:05.095Z,21.40
2019-02-14T20:17:34.368Z,19.77
2019-02-14T20:20:03.698Z,21.03
2019-02-14T20:22:33.054Z,21.83
2019-02-14T20:25:02.341Z,21.70
2019-02-14T20:27:31.804Z,21.07
2019-02-14T20:30:01.108Z,21.50
2019-02-14T20:32:30.631Z,21.40
2019-02-14T20:35:01.708Z,23.53
2019-02-14T20:37:31.022Z,23.13
2019-02-14T20:40:00.331Z,22.50
2019-02-14T20:42:29.724Z,23.17
2019-02-14T20:44:59.031Z,23.70
2019-02-14T20:47:30.481Z,24.47
2019-02-14T20:49:59.772Z,23.53
2019-02-14T20:52:29.045Z,23.80
2019-02-14T20:54:58.422Z,22.37
2019-02-14T20:57:27.848Z,23.03
2019-02-14T20:59:57.205Z,23.03
2019-02-14T21:02:26.461Z,22.90
2019-02-14T21:04:55.759Z,23.03
2019-02-14T21:07:25.094Z,21.83
2019-02-14T21:09:54.530Z,23.13
2019-02-14T21:12:23.884Z,21.80
2019-02-14T21:14:54.521Z,23.37
2019-02-14T21:17:23.920Z,23.87
2019-02-14T21:19:53.239Z,22.37
2019-02-14T21:22:22.590Z,24.13
2019-02-14T21:24:52.071Z,23.40
2019-02-14T21:27:21.422Z,23.33
2019-02-14T21:29:50.762Z,22.87
2019-02-14T21:32:20.079Z,21.93
2019-02-14T21:34:49.406Z,23.27
2019-02-14T21:37:18.740Z,22.10
2019-02-14T21:39:48.128Z,22.83
2019-02-14T21:42:21.684Z,22.83
2019-02-14T21:44:48.472Z,22.87
2019-02-14T21:47:17.889Z,21.83
2019-02-14T21:49:47.265Z,22.70
2019-02-14T21:52:18.017Z,21.43
2019-02-14T21:54:47.542Z,22.47
2019-02-14T21:57:16.876Z,21.30
2019-02-14T21:59:46.218Z,21.27
2019-02-14T22:02:15.490Z,22.13
2019-02-14T22:04:44.819Z,20.97
2019-02-14T22:07:14.105Z,20.03
2019-02-14T22:09:43.503Z,20.57
2019-02-14T22:12:12.834Z,19.73
2019-02-14T22:14:42.125Z,20.50
2019-02-14T22:17:11.468Z,20.03
2019-02-14T22:19:40.749Z,19.77
2019-02-14T22:22:10.150Z,18.70
2019-02-14T22:24:39.752Z,19.17
2019-02-14T22:27:09.065Z,19.33
2019-02-14T22:29:38.359Z,19.73
2019-02-14T22:32:07.839Z,19.87
2019-02-14T22:34:37.186Z,19.77
2019-02-14T22:37:06.509Z,19.23
2019-02-14T22:39:35.856Z,19.27
2019-02-14T22:42:05.172Z,19.03
2019-02-14T22:44:34.472Z,19.90
2019-02-14T22:47:03.965Z,19.13
2019-02-14T22:49:33.324Z,18.20
2019-02-14T22:52:02.653Z,17.80
2019-02-14T22:54:32.055Z,18.83
2019-02-14T22:57:01.311Z,18.87
2019-02-14T22:59:30.622Z,18.53
2019-02-14T23:02:00.371Z,19.10
2019-02-14T23:04:29.697Z,18.90
2019-02-14T23:06:59.053Z,18.83
2019-02-14T23:09:28.513Z,18.23
2019-02-14T23:11:57.874Z,18.17
2019-02-14T23:14:27.234Z,18.27
2019-02-14T23:16:56.560Z,18.13
2019-02-14T23:19:26.168Z,17.73
2019-02-14T23:21:55.504Z,18.90
2019-02-14T23:24:24.871Z,19.20
2019-02-14T23:26:54.213Z,18.37
2019-02-14T23:29:23.493Z,18.27
2019-02-14T23:31:52.802Z,19.03
2019-02-14T23:34:22.198Z,21.27
2019-02-14T23:36:51.502Z,18.33
2019-02-14T23:39:20.943Z,19.23
2019-02-14T23:41:50.301Z,19.93
2019-02-14T23:44:19.639Z,19.77
2019-02-14T23:46:49.123Z,21.37
2019-02-14T23:49:18.493Z,20.60
2019-02-14T23:51:47.821Z,20.53
2019-02-14T23:54:17.148Z,20.23
2019-02-14T23:56:46.425Z,19.77
2019-02-14T23:59:15.774Z,19.90
